sensor_id;sensor_type;location;lat;lon;timestamp;temperature;humidity
9486;DHT22;4781;48.776;9.200;2022-08-25T00:02:04;20.90;99.90
9486;DHT22;4781;48.776;9.200;2022-08-25T00:04:34;20.90;99.90
9486;DHT22;4781;48.776;9.200;2022-08-25T00:07:04;20.80;99.90
9486;DHT22;4781;48.776;9.200;2022-08-25T00:09:34;20.80;99.90
9486;DHT22;4781;48.776;9.200;2022-08-25T00:12:03;20.80;99.90
9486;DHT22;4781;48.776;9.200;2022-08-25T00:14:34;20.80;99.90
9486;DHT22;4781;48.776;9.200;2022-08-25T00:17:04;20.70;99.90
9486;DHT22;4781;48.776;9.200;2022-08-25T00:19:35;20.70;99.90
9486;DHT22;4781;48.776;9.200;2022-08-25T00:22:05;20.60;99.90
9486;DHT22;4781;48.776;9.200;2022-08-25T00:24:34;20.70;99.90
9486;DHT22;4781;48.776;9.200;2022-08-25T00:27:04;20.60;99.90
9486;DHT22;4781;48.776;9.200;2022-08-25T00:29:33;20.50;99.90
9486;DHT22;4781;48.776;9.200;2022-08-25T00:32:04;20.50;99.90
9486;DHT22;4781;48.776;9.200;2022-08-25T00:34:35;20.40;99.90
9486;DHT22;4781;48.776;9.200;2022-08-25T00:37:06;20.40;99.90
9486;DHT22;4781;48.776;9.200;2022-08-25T00:39:35;20.40;99.90
9486;DHT22;4781;48.776;9.200;2022-08-25T00:42:06;20.30;99.90
9486;DHT22;4781;48.776;9.200;2022-08-25T00:44:35;20.30;99.90
9486;DHT22;4781;48.776;9.200;2022-08-25T00:47:05;20.30;99.90
9486;DHT22;4781;48.776;9.200;2022-08-25T00:49:47;20.30;99.90
9486;DHT22;4781;48.776;9.200;2022-08-25T00:52:21;20.20;99.90
9486;DHT22;4781;48.776;9.200;2022-08-25T00:54:54;20.10;99.90
9486;DHT22;4781;48.776;9.200;2022-08-25T00:57:45;20.10;99.90
9486;DHT22;4781;48.776;9.200;2022-08-25T01:00:24;20.10;99.90
9486;DHT22;4781;48.776;9.200;2022-08-25T01:02:53;20.10;99.90
9486;DHT22;4781;48.776;9.200;2022-08-25T01:05:23;20.00;99.90
9486;DHT22;4781;48.776;9.200;2022-08-25T01:07:53;19.90;99.90
9486;DHT22;4781;48.776;9.200;2022-08-25T01:10:23;19.80;99.90
9486;DHT22;4781;48.776;9.200;2022-08-25T01:12:57;19.80;99.90
9486;DHT22;4781;48.776;9.200;2022-08-25T01:15:27;19.70;99.90
9486;DHT22;4781;48.776;9.200;2022-08-25T01:17:57;19.60;99.90
9486;DHT22;4781;48.776;9.200;2022-08-25T01:20:29;19.60;99.90
9486;DHT22;4781;48.776;9.200;2022-08-25T01:22:58;19.50;99.90
9486;DHT22;4781;48.776;9.200;2022-08-25T01:28:57;19.40;99.90
9486;DHT22;4781;48.776;9.200;2022-08-25T01:31:45;19.40;99.90
9486;DHT22;4781;48.776;9.200;2022-08-25T01:34:16;19.40;99.90
9486;DHT22;4781;48.776;9.200;2022-08-25T01:36:46;19.40;99.90
9486;DHT22;4781;48.776;9.200;2022-08-25T01:39:15;19.30;99.90
9486;DHT22;4781;48.776;9.200;2022-08-25T01:44:41;19.20;99.90
9486;DHT22;4781;48.776;9.200;2022-08-25T01:47:11;19.00;99.90
9486;DHT22;4781;48.776;9.200;2022-08-25T01:49:40;19.00;99.90
9486;DHT22;4781;48.776;9.200;2022-08-25T01:52:15;19.10;99.90
9486;DHT22;4781;48.776;9.200;2022-08-25T01:54:48;19.10;99.90
9486;DHT22;4781;48.776;9.200;2022-08-25T01:57:17;19.10;99.90
9486;DHT22;4781;48.776;9.200;2022-08-25T01:59:45;19.10;99.90
9486;DHT22;4781;48.776;9.200;2022-08-25T02:02:14;19.10;99.90
9486;DHT22;4781;48.776;9.200;2022-08-25T02:04:42;19.00;99.90
9486;DHT22;4781;48.776;9.200;2022-08-25T02:07:11;19.00;99.90
9486;DHT22;4781;48.776;9.200;2022-08-25T02:09:39;18.90;99.90
9486;DHT22;4781;48.776;9.200;2022-08-25T02:12:09;18.90;99.90
9486;DHT22;4781;48.776;9.200;2022-08-25T02:14:38;18.80;99.90
9486;DHT22;4781;48.776;9.200;2022-08-25T02:17:06;18.90;99.90
9486;DHT22;4781;48.776;9.200;2022-08-25T02:19:35;18.80;99.90
9486;DHT22;4781;48.776;9.200;2022-08-25T02:22:03;18.80;99.90
9486;DHT22;4781;48.776;9.200;2022-08-25T02:24:32;18.80;99.90
9486;DHT22;4781;48.776;9.200;2022-08-25T02:27:01;18.70;99.90
9486;DHT22;4781;48.776;9.200;2022-08-25T02:29:29;18.60;99.90
9486;DHT22;4781;48.776;9.200;2022-08-25T02:31:58;18.60;99.90
9486;DHT22;4781;48.776;9.200;2022-08-25T02:34:26;18.60;99.90
9486;DHT22;4781;48.776;9.200;2022-08-25T02:36:54;18.50;99.90
9486;DHT22;4781;48.776;9.200;2022-08-25T02:39:23;18.50;99.90
9486;DHT22;4781;48.776;9.200;2022-08-25T02:41:51;18.50;99.90
9486;DHT22;4781;48.776;9.200;2022-08-25T02:44:20;18.40;99.90
9486;DHT22;4781;48.776;9.200;2022-08-25T02:46:48;18.40;99.90
9486;DHT22;4781;48.776;9.200;2022-08-25T02:49:17;18.40;99.90
9486;DHT22;4781;48.776;9.200;2022-08-25T02:51:45;18.30;99.90
9486;DHT22;4781;48.776;9.200;2022-08-25T02:54:13;18.30;99.90
9486;DHT22;4781;48.776;9.200;2022-08-25T02:56:42;18.30;99.90
9486;DHT22;4781;48.776;9.200;2022-08-25T02:59:10;18.30;99.90
9486;DHT22;4781;48.776;9.200;2022-08-25T03:01:39;18.20;99.90
9486;DHT22;4781;48.776;9.200;2022-08-25T03:04:07;18.20;99.90
9486;DHT22;4781;48.776;9.200;2022-08-25T03:06:35;18.30;99.90
9486;DHT22;4781;48.776;9.200;2022-08-25T03:09:05;18.30;99.90
9486;DHT22;4781;48.776;9.200;2022-08-25T03:11:33;18.30;99.90
9486;DHT22;4781;48.776;9.200;2022-08-25T03:14:05;18.30;99.90
9486;DHT22;4781;48.776;9.200;2022-08-25T03:16:34;18.30;99.90
9486;DHT22;4781;48.776;9.200;2022-08-25T03:19:03;18.30;99.90
9486;DHT22;4781;48.776;9.200;2022-08-25T03:21:32;18.20;99.90
9486;DHT22;4781;48.776;9.200;2022-08-25T03:24:00;18.20;99.90
9486;DHT22;4781;48.776;9.200;2022-08-25T03:26:29;18.20;99.90
9486;DHT22;4781;48.776;9.200;2022-08-25T03:29:15;18.20;99.90
9486;DHT22;4781;48.776;9.200;2022-08-25T03:31:44;18.20;99.90
9486;DHT22;4781;48.776;9.200;2022-08-25T03:34:14;18.10;99.90
9486;DHT22;4781;48.776;9.200;2022-08-25T03:36:44;18.10;99.90
9486;DHT22;4781;48.776;9.200;2022-08-25T03:39:16;18.10;99.90
9486;DHT22;4781;48.776;9.200;2022-08-25T03:41:45;18.10;99.90
9486;DHT22;4781;48.776;9.200;2022-08-25T03:44:14;18.10;99.90
9486;DHT22;4781;48.776;9.200;2022-08-25T03:46:48;18.10;99.90
9486;DHT22;4781;48.776;9.200;2022-08-25T03:49:21;17.90;99.90
9486;DHT22;4781;48.776;9.200;2022-08-25T03:51:51;17.90;99.90
9486;DHT22;4781;48.776;9.200;2022-08-25T03:54:22;17.90;99.90
9486;DHT22;4781;48.776;9.200;2022-08-25T03:56:52;17.80;99.90
9486;DHT22;4781;48.776;9.200;2022-08-25T03:59:20;17.80;99.90
9486;DHT22;4781;48.776;9.200;2022-08-25T04:01:49;17.70;99.90
9486;DHT22;4781;48.776;9.200;2022-08-25T04:04:17;17.80;99.90
9486;DHT22;4781;48.776;9.200;2022-08-25T04:06:46;17.70;99.90
9486;DHT22;4781;48.776;9.200;2022-08-25T04:09:14;17.70;99.90
9486;DHT22;4781;48.776;9.200;2022-08-25T04:11:43;17.70;99.90
9486;DHT22;4781;48.776;9.200;2022-08-25T04:14:11;17.70;99.90
9486;DHT22;4781;48.776;9.200;2022-08-25T04:16:40;17.60;99.90
9486;DHT22;4781;48.776;9.200;2022-08-25T04:19:10;17.60;99.90
9486;DHT22;4781;48.776;9.200;2022-08-25T04:21:39;17.50;99.90
9486;DHT22;4781;48.776;9.200;2022-08-25T04:24:09;17.50;99.90
9486;DHT22;4781;48.776;9.200;2022-08-25T04:26:44;17.50;99.90
9486;DHT22;4781;48.776;9.200;2022-08-25T04:29:17;17.50;99.90
9486;DHT22;4781;48.776;9.200;2022-08-25T04:31:47;17.50;99.90
9486;DHT22;4781;48.776;9.200;2022-08-25T04:34:18;17.50;99.90
9486;DHT22;4781;48.776;9.200;2022-08-25T04:36:48;17.50;99.90
9486;DHT22;4781;48.776;9.200;2022-08-25T04:39:18;17.40;99.90
9486;DHT22;4781;48.776;9.200;2022-08-25T04:41:48;17.50;99.90
9486;DHT22;4781;48.776;9.200;2022-08-25T04:44:17;17.50;99.90
9486;DHT22;4781;48.776;9.200;2022-08-25T04:46:45;17.50;99.90
9486;DHT22;4781;48.776;9.200;2022-08-25T04:49:15;17.50;99.90
9486;DHT22;4781;48.776;9.200;2022-08-25T04:51:43;17.40;99.90
9486;DHT22;4781;48.776;9.200;2022-08-25T04:54:14;17.40;99.90
9486;DHT22;4781;48.776;9.200;2022-08-25T04:56:44;17.50;99.90
9486;DHT22;4781;48.776;9.200;2022-08-25T04:59:14;17.50;99.90
9486;DHT22;4781;48.776;9.200;2022-08-25T05:01:44;17.50;99.90
9486;DHT22;4781;48.776;9.200;2022-08-25T05:04:14;17.60;99.90
9486;DHT22;4781;48.776;9.200;2022-08-25T05:06:43;17.60;99.90
9486;DHT22;4781;48.776;9.200;2022-08-25T05:09:12;17.60;99.90
9486;DHT22;4781;48.776;9.200;2022-08-25T05:11:40;17.60;99.90
9486;DHT22;4781;48.776;9.200;2022-08-25T05:14:09;17.70;99.90
9486;DHT22;4781;48.776;9.200;2022-08-25T05:16:39;17.70;99.90
9486;DHT22;4781;48.776;9.200;2022-08-25T05:19:07;17.70;99.90
9486;DHT22;4781;48.776;9.200;2022-08-25T05:21:35;17.70;99.90
9486;DHT22;4781;48.776;9.200;2022-08-25T05:24:04;17.70;99.90
9486;DHT22;4781;48.776;9.200;2022-08-25T05:26:34;17.80;99.90
9486;DHT22;4781;48.776;9.200;2022-08-25T05:29:03;17.80;99.90
9486;DHT22;4781;48.776;9.200;2022-08-25T05:31:33;17.80;99.90
9486;DHT22;4781;48.776;9.200;2022-08-25T05:34:04;17.90;99.90
9486;DHT22;4781;48.776;9.200;2022-08-25T05:36:33;17.90;99.90
9486;DHT22;4781;48.776;9.200;2022-08-25T05:39:03;18.00;99.90
9486;DHT22;4781;48.776;9.200;2022-08-25T05:41:31;18.00;99.90
9486;DHT22;4781;48.776;9.200;2022-08-25T05:43:59;18.10;99.90
9486;DHT22;4781;48.776;9.200;2022-08-25T05:46:28;18.20;99.90
9486;DHT22;4781;48.776;9.200;2022-08-25T05:48:56;18.20;99.90
9486;DHT22;4781;48.776;9.200;2022-08-25T05:51:25;18.40;99.90
9486;DHT22;4781;48.776;9.200;2022-08-25T05:53:53;18.40;99.90
9486;DHT22;4781;48.776;9.200;2022-08-25T05:56:22;18.50;99.90
9486;DHT22;4781;48.776;9.200;2022-08-25T05:58:50;18.70;99.90
9486;DHT22;4781;48.776;9.200;2022-08-25T06:01:21;18.80;99.90
9486;DHT22;4781;48.776;9.200;2022-08-25T06:04:09;18.90;99.90
9486;DHT22;4781;48.776;9.200;2022-08-25T06:06:38;19.00;99.90
9486;DHT22;4781;48.776;9.200;2022-08-25T06:09:07;19.00;99.90
9486;DHT22;4781;48.776;9.200;2022-08-25T06:11:38;19.20;99.90
9486;DHT22;4781;48.776;9.200;2022-08-25T06:14:08;19.20;99.90
9486;DHT22;4781;48.776;9.200;2022-08-25T06:16:37;19.30;99.90
9486;DHT22;4781;48.776;9.200;2022-08-25T06:19:07;19.50;99.90
9486;DHT22;4781;48.776;9.200;2022-08-25T06:21:37;19.60;99.90
9486;DHT22;4781;48.776;9.200;2022-08-25T06:24:07;19.60;99.90
9486;DHT22;4781;48.776;9.200;2022-08-25T06:26:36;19.70;99.90
9486;DHT22;4781;48.776;9.200;2022-08-25T06:29:05;19.80;99.90
9486;DHT22;4781;48.776;9.200;2022-08-25T06:31:33;19.90;99.90
9486;DHT22;4781;48.776;9.200;2022-08-25T06:34:02;20.00;99.90
9486;DHT22;4781;48.776;9.200;2022-08-25T06:36:32;20.10;99.90
9486;DHT22;4781;48.776;9.200;2022-08-25T06:39:00;20.20;99.90
9486;DHT22;4781;48.776;9.200;2022-08-25T06:41:29;20.30;99.90
9486;DHT22;4781;48.776;9.200;2022-08-25T06:43:57;20.40;99.90
9486;DHT22;4781;48.776;9.200;2022-08-25T06:46:27;20.60;99.90
9486;DHT22;4781;48.776;9.200;2022-08-25T06:48:56;20.70;99.90
9486;DHT22;4781;48.776;9.200;2022-08-25T06:51:26;20.80;99.90
9486;DHT22;4781;48.776;9.200;2022-08-25T06:53:54;20.90;99.90
9486;DHT22;4781;48.776;9.200;2022-08-25T06:56:23;21.10;99.90
9486;DHT22;4781;48.776;9.200;2022-08-25T06:58:51;21.20;99.90
9486;DHT22;4781;48.776;9.200;2022-08-25T07:01:22;21.30;99.90
9486;DHT22;4781;48.776;9.200;2022-08-25T07:03:57;21.40;99.90
9486;DHT22;4781;48.776;9.200;2022-08-25T07:06:28;21.50;99.90
9486;DHT22;4781;48.776;9.200;2022-08-25T07:08:58;21.70;99.90
9486;DHT22;4781;48.776;9.200;2022-08-25T07:11:27;21.70;99.90
9486;DHT22;4781;48.776;9.200;2022-08-25T07:13:57;21.80;99.90
9486;DHT22;4781;48.776;9.200;2022-08-25T07:16:25;21.70;99.90
9486;DHT22;4781;48.776;9.200;2022-08-25T07:18:53;21.90;99.90
9486;DHT22;4781;48.776;9.200;2022-08-25T07:21:23;22.20;99.90
9486;DHT22;4781;48.776;9.200;2022-08-25T07:23:52;22.30;99.90
9486;DHT22;4781;48.776;9.200;2022-08-25T07:26:25;22.40;99.90
9486;DHT22;4781;48.776;9.200;2022-08-25T07:28:56;22.40;99.90
9486;DHT22;4781;48.776;9.200;2022-08-25T07:31:25;22.70;99.90
9486;DHT22;4781;48.776;9.200;2022-08-25T07:33:53;22.60;99.90
9486;DHT22;4781;48.776;9.200;2022-08-25T07:36:39;22.70;99.90
9486;DHT22;4781;48.776;9.200;2022-08-25T07:39:08;22.80;99.90
9486;DHT22;4781;48.776;9.200;2022-08-25T07:41:39;22.90;99.90
9486;DHT22;4781;48.776;9.200;2022-08-25T07:44:10;23.00;99.90
9486;DHT22;4781;48.776;9.200;2022-08-25T07:46:39;23.10;99.90
9486;DHT22;4781;48.776;9.200;2022-08-25T07:49:08;23.40;99.90
9486;DHT22;4781;48.776;9.200;2022-08-25T07:51:36;23.60;99.90
9486;DHT22;4781;48.776;9.200;2022-08-25T07:54:05;23.60;99.90
9486;DHT22;4781;48.776;9.200;2022-08-25T07:56:34;23.70;99.90
9486;DHT22;4781;48.776;9.200;2022-08-25T07:59:02;23.80;99.90
9486;DHT22;4781;48.776;9.200;2022-08-25T08:01:31;23.80;99.90
9486;DHT22;4781;48.776;9.200;2022-08-25T08:03:59;23.80;99.90
9486;DHT22;4781;48.776;9.200;2022-08-25T08:06:28;24.00;99.90
9486;DHT22;4781;48.776;9.200;2022-08-25T08:08:56;24.30;99.90
9486;DHT22;4781;48.776;9.200;2022-08-25T08:11:28;24.60;99.90
9486;DHT22;4781;48.776;9.200;2022-08-25T08:14:03;24.60;99.90
9486;DHT22;4781;48.776;9.200;2022-08-25T08:16:32;24.80;99.90
9486;DHT22;4781;48.776;9.200;2022-08-25T08:19:00;24.80;99.90
9486;DHT22;4781;48.776;9.200;2022-08-25T08:21:31;24.90;99.90
9486;DHT22;4781;48.776;9.200;2022-08-25T08:24:01;25.00;99.90
9486;DHT22;4781;48.776;9.200;2022-08-25T08:26:30;25.30;99.90
9486;DHT22;4781;48.776;9.200;2022-08-25T08:28:59;25.40;99.90
9486;DHT22;4781;48.776;9.200;2022-08-25T08:31:28;25.50;99.90
9486;DHT22;4781;48.776;9.200;2022-08-25T08:33:57;25.60;99.90
9486;DHT22;4781;48.776;9.200;2022-08-25T08:36:25;25.70;99.90
9486;DHT22;4781;48.776;9.200;2022-08-25T08:38:54;25.60;99.90
9486;DHT22;4781;48.776;9.200;2022-08-25T08:41:33;25.70;99.90
9486;DHT22;4781;48.776;9.200;2022-08-25T08:44:29;26.10;99.90
9486;DHT22;4781;48.776;9.200;2022-08-25T08:53:44;25.90;99.90
9486;DHT22;4781;48.776;9.200;2022-08-25T08:56:22;25.80;99.90
9486;DHT22;4781;48.776;9.200;2022-08-25T08:58:59;25.70;99.90
9486;DHT22;4781;48.776;9.200;2022-08-25T09:01:41;25.90;99.90
9486;DHT22;4781;48.776;9.200;2022-08-25T09:04:29;26.20;99.90
9486;DHT22;4781;48.776;9.200;2022-08-25T09:07:25;26.70;99.90
9486;DHT22;4781;48.776;9.200;2022-08-25T09:10:00;27.00;99.90
9486;DHT22;4781;48.776;9.200;2022-08-25T09:15:38;27.10;99.90
9486;DHT22;4781;48.776;9.200;2022-08-25T09:21:21;27.40;99.90
9486;DHT22;4781;48.776;9.200;2022-08-25T09:24:09;27.40;99.90
9486;DHT22;4781;48.776;9.200;2022-08-25T09:26:48;27.50;99.90
9486;DHT22;4781;48.776;9.200;2022-08-25T09:29:15;27.90;99.90
9486;DHT22;4781;48.776;9.200;2022-08-25T09:31:48;28.40;99.90
9486;DHT22;4781;48.776;9.200;2022-08-25T09:34:22;28.70;99.90
9486;DHT22;4781;48.776;9.200;2022-08-25T09:36:52;28.50;99.90
9486;DHT22;4781;48.776;9.200;2022-08-25T09:39:21;28.70;99.90
9486;DHT22;4781;48.776;9.200;2022-08-25T09:42:00;28.50;99.10
9486;DHT22;4781;48.776;9.200;2022-08-25T09:44:39;28.80;99.00
9486;DHT22;4781;48.776;9.200;2022-08-25T09:47:21;28.50;99.40
9486;DHT22;4781;48.776;9.200;2022-08-25T09:49:56;28.50;99.20
9486;DHT22;4781;48.776;9.200;2022-08-25T09:52:34;28.90;99.30
9486;DHT22;4781;48.776;9.200;2022-08-25T09:58:12;29.70;97.40
9486;DHT22;4781;48.776;9.200;2022-08-25T10:00:43;29.30;97.60
9486;DHT22;4781;48.776;9.200;2022-08-25T10:06:00;29.40;97.80
9486;DHT22;4781;48.776;9.200;2022-08-25T10:11:40;30.00;96.30
9486;DHT22;4781;48.776;9.200;2022-08-25T10:14:03;30.10;96.60
9486;DHT22;4781;48.776;9.200;2022-08-25T10:16:33;30.10;96.30
9486;DHT22;4781;48.776;9.200;2022-08-25T10:19:12;29.80;95.10
9486;DHT22;4781;48.776;9.200;2022-08-25T10:22:10;29.70;95.40
9486;DHT22;4781;48.776;9.200;2022-08-25T10:24:40;29.20;96.30
9486;DHT22;4781;48.776;9.200;2022-08-25T10:27:27;29.80;95.40
9486;DHT22;4781;48.776;9.200;2022-08-25T10:30:41;30.30;94.70
9486;DHT22;4781;48.776;9.200;2022-08-25T10:36:41;30.90;94.10
9486;DHT22;4781;48.776;9.200;2022-08-25T10:39:42;30.60;93.00
9486;DHT22;4781;48.776;9.200;2022-08-25T10:42:32;30.40;92.40
9486;DHT22;4781;48.776;9.200;2022-08-25T10:45:26;30.30;93.60
9486;DHT22;4781;48.776;9.200;2022-08-25T11:00:03;30.60;91.90
9486;DHT22;4781;48.776;9.200;2022-08-25T11:08:30;30.00;91.40
9486;DHT22;4781;48.776;9.200;2022-08-25T11:11:35;30.60;91.70
9486;DHT22;4781;48.776;9.200;2022-08-25T11:14:19;30.70;90.90
9486;DHT22;4781;48.776;9.200;2022-08-25T11:17:11;30.50;90.90
9486;DHT22;4781;48.776;9.200;2022-08-25T11:19:50;30.50;90.90
9486;DHT22;4781;48.776;9.200;2022-08-25T11:22:41;29.80;90.30
9486;DHT22;4781;48.776;9.200;2022-08-25T11:25:27;30.80;91.10
9486;DHT22;4781;48.776;9.200;2022-08-25T11:30:51;31.30;88.70
9486;DHT22;4781;48.776;9.200;2022-08-25T11:33:22;31.40;88.40
9486;DHT22;4781;48.776;9.200;2022-08-25T11:35:58;31.20;87.20
9486;DHT22;4781;48.776;9.200;2022-08-25T11:41:33;30.60;88.50
9486;DHT22;4781;48.776;9.200;2022-08-25T11:50:01;31.40;84.80
9486;DHT22;4781;48.776;9.200;2022-08-25T11:52:40;30.70;83.90
9486;DHT22;4781;48.776;9.200;2022-08-25T11:55:27;31.70;85.80
9486;DHT22;4781;48.776;9.200;2022-08-25T11:58:38;31.90;82.90
9486;DHT22;4781;48.776;9.200;2022-08-25T12:01:00;32.40;85.10
9486;DHT22;4781;48.776;9.200;2022-08-25T12:06:29;31.60;83.20
9486;DHT22;4781;48.776;9.200;2022-08-25T12:11:54;32.20;83.90
9486;DHT22;4781;48.776;9.200;2022-08-25T12:16:59;31.10;83.40
9486;DHT22;4781;48.776;9.200;2022-08-25T12:27:39;31.10;80.40
9486;DHT22;4781;48.776;9.200;2022-08-25T12:30:30;30.50;82.10
9486;DHT22;4781;48.776;9.200;2022-08-25T12:36:04;30.20;81.50
9486;DHT22;4781;48.776;9.200;2022-08-25T12:38:42;30.40;81.20
9486;DHT22;4781;48.776;9.200;2022-08-25T12:41:23;30.70;81.70
9486;DHT22;4781;48.776;9.200;2022-08-25T12:44:14;31.00;82.90
9486;DHT22;4781;48.776;9.200;2022-08-25T12:47:11;30.70;83.00
9486;DHT22;4781;48.776;9.200;2022-08-25T12:53:31;31.20;80.40
9486;DHT22;4781;48.776;9.200;2022-08-25T12:55:56;31.30;76.50
9486;DHT22;4781;48.776;9.200;2022-08-25T12:58:27;31.20;76.60
9486;DHT22;4781;48.776;9.200;2022-08-25T13:18:28;31.10;77.60
9486;DHT22;4781;48.776;9.200;2022-08-25T13:23:54;31.50;78.50
9486;DHT22;4781;48.776;9.200;2022-08-25T13:26:26;31.50;77.80
9486;DHT22;4781;48.776;9.200;2022-08-25T13:29:02;31.90;77.00
9486;DHT22;4781;48.776;9.200;2022-08-25T13:31:31;31.80;75.30
9486;DHT22;4781;48.776;9.200;2022-08-25T13:34:04;31.80;76.60
9486;DHT22;4781;48.776;9.200;2022-08-25T13:36:43;31.70;76.90
9486;DHT22;4781;48.776;9.200;2022-08-25T13:39:30;31.40;76.30
9486;DHT22;4781;48.776;9.200;2022-08-25T13:42:04;31.80;75.70
9486;DHT22;4781;48.776;9.200;2022-08-25T13:44:36;31.80;75.00
9486;DHT22;4781;48.776;9.200;2022-08-25T13:47:15;31.70;76.00
9486;DHT22;4781;48.776;9.200;2022-08-25T13:49:46;32.30;76.30
9486;DHT22;4781;48.776;9.200;2022-08-25T13:52:28;32.60;74.90
9486;DHT22;4781;48.776;9.200;2022-08-25T13:54:58;32.30;75.70
9486;DHT22;4781;48.776;9.200;2022-08-25T13:57:28;32.00;73.10
9486;DHT22;4781;48.776;9.200;2022-08-25T14:00:06;31.80;74.60
9486;DHT22;4781;48.776;9.200;2022-08-25T14:02:46;31.80;75.10
9486;DHT22;4781;48.776;9.200;2022-08-25T14:05:35;31.70;76.20
9486;DHT22;4781;48.776;9.200;2022-08-25T14:08:06;31.80;76.00
9486;DHT22;4781;48.776;9.200;2022-08-25T14:10:40;32.20;75.40
9486;DHT22;4781;48.776;9.200;2022-08-25T14:16:21;32.20;73.80
9486;DHT22;4781;48.776;9.200;2022-08-25T14:18:51;31.70;75.00
9486;DHT22;4781;48.776;9.200;2022-08-25T14:21:24;32.00;76.60
9486;DHT22;4781;48.776;9.200;2022-08-25T14:23:56;32.40;75.20
9486;DHT22;4781;48.776;9.200;2022-08-25T14:26:25;32.10;76.00
9486;DHT22;4781;48.776;9.200;2022-08-25T14:28:54;32.00;75.70
9486;DHT22;4781;48.776;9.200;2022-08-25T14:31:25;31.90;75.40
9486;DHT22;4781;48.776;9.200;2022-08-25T14:34:01;31.90;75.00
9486;DHT22;4781;48.776;9.200;2022-08-25T14:36:34;31.70;75.00
9486;DHT22;4781;48.776;9.200;2022-08-25T14:39:04;31.20;76.50
9486;DHT22;4781;48.776;9.200;2022-08-25T14:41:35;31.30;77.00
9486;DHT22;4781;48.776;9.200;2022-08-25T14:44:05;31.60;76.50
9486;DHT22;4781;48.776;9.200;2022-08-25T14:46:36;31.60;76.30
9486;DHT22;4781;48.776;9.200;2022-08-25T14:49:12;31.30;75.40
9486;DHT22;4781;48.776;9.200;2022-08-25T14:51:42;31.50;76.40
9486;DHT22;4781;48.776;9.200;2022-08-25T14:54:13;31.50;75.50
9486;DHT22;4781;48.776;9.200;2022-08-25T14:56:45;31.60;76.00
9486;DHT22;4781;48.776;9.200;2022-08-25T14:59:14;31.30;76.50
9486;DHT22;4781;48.776;9.200;2022-08-25T15:01:44;31.50;74.30
9486;DHT22;4781;48.776;9.200;2022-08-25T15:04:15;31.10;74.00
9486;DHT22;4781;48.776;9.200;2022-08-25T15:06:46;31.20;74.80
9486;DHT22;4781;48.776;9.200;2022-08-25T15:09:17;31.10;75.50
9486;DHT22;4781;48.776;9.200;2022-08-25T15:11:50;30.60;76.10
9486;DHT22;4781;48.776;9.200;2022-08-25T15:14:22;30.30;77.10
9486;DHT22;4781;48.776;9.200;2022-08-25T15:16:53;30.10;78.00
9486;DHT22;4781;48.776;9.200;2022-08-25T15:19:24;30.00;79.00
9486;DHT22;4781;48.776;9.200;2022-08-25T15:21:53;29.80;78.90
9486;DHT22;4781;48.776;9.200;2022-08-25T15:24:22;29.60;78.70
9486;DHT22;4781;48.776;9.200;2022-08-25T15:26:53;29.60;79.00
9486;DHT22;4781;48.776;9.200;2022-08-25T15:29:25;29.60;79.50
9486;DHT22;4781;48.776;9.200;2022-08-25T15:31:56;29.30;79.50
9486;DHT22;4781;48.776;9.200;2022-08-25T15:34:25;29.40;79.90
9486;DHT22;4781;48.776;9.200;2022-08-25T15:36:57;29.50;80.30
9486;DHT22;4781;48.776;9.200;2022-08-25T15:39:28;29.30;79.90
9486;DHT22;4781;48.776;9.200;2022-08-25T15:41:56;29.10;80.30
9486;DHT22;4781;48.776;9.200;2022-08-25T15:44:25;29.00;80.50
9486;DHT22;4781;48.776;9.200;2022-08-25T15:46:53;28.90;80.20
9486;DHT22;4781;48.776;9.200;2022-08-25T15:49:21;29.00;80.70
9486;DHT22;4781;48.776;9.200;2022-08-25T15:51:51;29.20;79.40
9486;DHT22;4781;48.776;9.200;2022-08-25T15:54:21;29.60;79.20
9486;DHT22;4781;48.776;9.200;2022-08-25T15:56:50;29.80;79.70
9486;DHT22;4781;48.776;9.200;2022-08-25T15:59:19;29.70;78.40
9486;DHT22;4781;48.776;9.200;2022-08-25T16:01:48;29.80;79.30
9486;DHT22;4781;48.776;9.200;2022-08-25T16:04:19;29.80;79.50
9486;DHT22;4781;48.776;9.200;2022-08-25T16:06:48;29.80;78.90
9486;DHT22;4781;48.776;9.200;2022-08-25T16:09:17;29.80;79.30
9486;DHT22;4781;48.776;9.200;2022-08-25T16:11:46;29.70;79.10
9486;DHT22;4781;48.776;9.200;2022-08-25T16:14:14;29.80;78.70
9486;DHT22;4781;48.776;9.200;2022-08-25T16:16:43;29.70;78.60
9486;DHT22;4781;48.776;9.200;2022-08-25T16:19:12;29.70;78.40
9486;DHT22;4781;48.776;9.200;2022-08-25T16:21:41;29.60;78.80
9486;DHT22;4781;48.776;9.200;2022-08-25T16:24:10;29.30;79.10
9486;DHT22;4781;48.776;9.200;2022-08-25T16:26:38;29.20;79.90
9486;DHT22;4781;48.776;9.200;2022-08-25T16:29:08;29.10;80.50
9486;DHT22;4781;48.776;9.200;2022-08-25T16:31:39;29.10;80.50
9486;DHT22;4781;48.776;9.200;2022-08-25T16:34:07;29.10;79.50
9486;DHT22;4781;48.776;9.200;2022-08-25T16:36:36;29.00;79.80
9486;DHT22;4781;48.776;9.200;2022-08-25T16:39:05;29.20;80.30
9486;DHT22;4781;48.776;9.200;2022-08-25T16:41:34;29.20;79.80
9486;DHT22;4781;48.776;9.200;2022-08-25T16:44:04;29.30;80.60
9486;DHT22;4781;48.776;9.200;2022-08-25T16:46:35;29.20;80.80
9486;DHT22;4781;48.776;9.200;2022-08-25T16:49:04;29.10;81.20
9486;DHT22;4781;48.776;9.200;2022-08-25T16:51:33;29.00;81.20
9486;DHT22;4781;48.776;9.200;2022-08-25T16:54:10;29.10;81.10
9486;DHT22;4781;48.776;9.200;2022-08-25T16:56:53;29.20;81.00
9486;DHT22;4781;48.776;9.200;2022-08-25T16:59:24;29.10;81.60
9486;DHT22;4781;48.776;9.200;2022-08-25T17:01:53;29.10;81.70
9486;DHT22;4781;48.776;9.200;2022-08-25T17:04:21;28.90;80.60
9486;DHT22;4781;48.776;9.200;2022-08-25T17:06:50;28.70;81.00
9486;DHT22;4781;48.776;9.200;2022-08-25T17:09:18;28.60;81.40
9486;DHT22;4781;48.776;9.200;2022-08-25T17:11:48;28.60;81.90
9486;DHT22;4781;48.776;9.200;2022-08-25T17:14:18;28.40;82.50
9486;DHT22;4781;48.776;9.200;2022-08-25T17:16:46;28.30;82.40
9486;DHT22;4781;48.776;9.200;2022-08-25T17:19:16;28.30;83.00
9486;DHT22;4781;48.776;9.200;2022-08-25T17:21:46;28.20;83.10
9486;DHT22;4781;48.776;9.200;2022-08-25T17:24:14;28.10;83.70
9486;DHT22;4781;48.776;9.200;2022-08-25T17:26:43;28.10;83.50
9486;DHT22;4781;48.776;9.200;2022-08-25T17:29:20;28.00;83.80
9486;DHT22;4781;48.776;9.200;2022-08-25T17:31:45;27.90;84.40
9486;DHT22;4781;48.776;9.200;2022-08-25T17:34:14;27.80;84.20
9486;DHT22;4781;48.776;9.200;2022-08-25T17:36:44;27.80;84.70
9486;DHT22;4781;48.776;9.200;2022-08-25T17:39:14;27.70;85.00
9486;DHT22;4781;48.776;9.200;2022-08-25T17:41:44;27.70;85.40
9486;DHT22;4781;48.776;9.200;2022-08-25T17:44:13;27.60;85.20
9486;DHT22;4781;48.776;9.200;2022-08-25T17:46:42;27.60;85.00
9486;DHT22;4781;48.776;9.200;2022-08-25T17:49:10;27.50;85.40
9486;DHT22;4781;48.776;9.200;2022-08-25T17:51:40;27.40;86.10
9486;DHT22;4781;48.776;9.200;2022-08-25T17:54:08;27.30;85.50
9486;DHT22;4781;48.776;9.200;2022-08-25T17:56:37;27.30;86.80
9486;DHT22;4781;48.776;9.200;2022-08-25T17:59:06;27.20;86.90
9486;DHT22;4781;48.776;9.200;2022-08-25T18:01:35;27.10;87.60
9486;DHT22;4781;48.776;9.200;2022-08-25T18:04:05;27.00;88.10
9486;DHT22;4781;48.776;9.200;2022-08-25T18:06:33;26.90;89.20
9486;DHT22;4781;48.776;9.200;2022-08-25T18:09:02;26.80;89.00
9486;DHT22;4781;48.776;9.200;2022-08-25T18:11:31;26.70;89.50
9486;DHT22;4781;48.776;9.200;2022-08-25T18:14:00;26.60;90.00
9486;DHT22;4781;48.776;9.200;2022-08-25T18:16:28;26.50;90.00
9486;DHT22;4781;48.776;9.200;2022-08-25T18:18:56;26.40;90.50
9486;DHT22;4781;48.776;9.200;2022-08-25T18:21:25;26.30;90.60